createdAt,value
2023-10-13T00:03:41.415Z,7.00
2023-10-13T00:06:12.714Z,7.20
2023-10-13T00:08:44.680Z,7.50
2023-10-13T00:11:19.538Z,7.10
2023-10-13T00:13:52.412Z,6.40
2023-10-13T00:16:28.099Z,6.60
2023-10-13T00:18:59.511Z,8.00
2023-10-13T00:21:33.599Z,6.80
2023-10-13T00:24:07.633Z,7.00
2023-10-13T00:26:39.069Z,6.80
2023-10-13T00:29:17.398Z,7.30
2023-10-13T00:31:50.168Z,7.00
2023-10-13T00:34:27.175Z,6.70
2023-10-13T00:40:02.765Z,7.00
2023-10-13T00:42:52.178Z,7.10
2023-10-13T00:45:24.852Z,7.60
2023-10-13T00:47:59.811Z,6.70
2023-10-13T00:50:37.667Z,6.80
2023-10-13T00:53:09.050Z,6.10
2023-10-13T00:55:42.755Z,5.90
2023-10-13T00:58:16.338Z,6.20
2023-10-13T01:00:49.129Z,6.80
2023-10-13T01:03:27.105Z,6.50
2023-10-13T01:06:00.313Z,6.60
2023-10-13T01:08:39.197Z,6.50
2023-10-13T01:11:11.770Z,6.70
2023-10-13T01:13:43.126Z,6.90
2023-10-13T01:16:15.896Z,6.80
2023-10-13T01:18:49.823Z,6.90
2023-10-13T01:21:22.182Z,6.80
2023-10-13T01:23:53.557Z,6.70
2023-10-13T01:26:25.976Z,7.20
2023-10-13T01:29:00.952Z,6.60
2023-10-13T01:31:38.697Z,7.00
2023-10-13T01:34:10.432Z,6.70
2023-10-13T01:36:41.837Z,6.10
2023-10-13T01:39:17.786Z,5.90
2023-10-13T01:41:55.032Z,6.10
2023-10-13T01:44:29.216Z,6.00
2023-10-13T01:47:07.273Z,6.10
2023-10-13T01:49:43.539Z,6.20
2023-10-13T01:52:17.073Z,6.70
2023-10-13T01:54:50.787Z,6.30
2023-10-13T01:57:25.388Z,6.00
2023-10-13T01:59:57.122Z,6.00
2023-10-13T02:02:31.509Z,6.30
2023-10-13T02:05:03.593Z,6.40
2023-10-13T02:07:36.093Z,6.10
2023-10-13T02:10:13.344Z,5.90
2023-10-13T02:12:47.398Z,5.90
2023-10-13T02:15:27.812Z,6.00
2023-10-13T02:18:01.182Z,5.50
2023-10-13T02:20:42.583Z,5.60
2023-10-13T02:23:13.824Z,6.00
2023-10-13T02:25:48.250Z,5.40
2023-10-13T02:28:29.124Z,6.80
2023-10-13T02:31:04.678Z,5.50
2023-10-13T02:33:37.072Z,5.00
2023-10-13T02:36:09.397Z,4.90
2023-10-13T02:38:46.860Z,5.90
2023-10-13T02:41:26.837Z,5.90
2023-10-13T02:43:58.650Z,5.10
2023-10-13T02:46:31.591Z,6.20
2023-10-13T02:49:10.480Z,6.00
2023-10-13T02:51:43.275Z,5.20
2023-10-13T02:54:19.498Z,5.20
2023-10-13T02:56:58.431Z,5.10
2023-10-13T02:59:40.231Z,5.30
2023-10-13T03:02:25.387Z,5.10
2023-10-13T03:05:00.595Z,5.00
2023-10-13T03:07:34.968Z,5.70
2023-10-13T03:10:12.006Z,5.20
2023-10-13T03:12:49.636Z,5.20
2023-10-13T03:15:22.675Z,5.20
2023-10-13T03:17:56.388Z,5.50
2023-10-13T03:20:32.710Z,5.50
2023-10-13T03:23:10.868Z,5.00
2023-10-13T03:25:44.833Z,5.20
2023-10-13T03:28:18.351Z,4.70
2023-10-13T03:30:54.118Z,5.10
2023-10-13T03:33:28.190Z,4.90
2023-10-13T03:36:07.090Z,4.90
2023-10-13T03:38:41.139Z,5.50
2023-10-13T03:41:21.472Z,5.40
2023-10-13T03:43:53.709Z,5.20
2023-10-13T03:46:24.921Z,4.90
2023-10-13T03:49:00.769Z,5.00
2023-10-13T03:51:33.422Z,5.10
2023-10-13T03:54:09.351Z,5.70
2023-10-13T03:56:45.363Z,5.20
2023-10-13T03:59:24.171Z,5.30
2023-10-13T04:02:00.807Z,4.80
2023-10-13T04:04:35.929Z,5.20
2023-10-13T04:07:31.526Z,5.20
2023-10-13T04:10:16.646Z,5.10
2023-10-13T04:13:05.073Z,5.20
2023-10-13T04:15:43.111Z,6.60
2023-10-13T04:18:34.988Z,5.40
2023-10-13T04:21:20.337Z,5.50
2023-10-13T04:24:08.916Z,5.00
2023-10-13T04:27:00.551Z,5.00
2023-10-13T04:29:46.483Z,5.60
2023-10-13T04:32:29.904Z,5.40
2023-10-13T04:35:10.225Z,5.40
2023-10-13T04:37:51.987Z,5.90
2023-10-13T04:40:27.325Z,6.10
2023-10-13T04:42:59.128Z,5.20
2023-10-13T04:45:48.139Z,5.60
2023-10-13T04:48:31.804Z,5.70
2023-10-13T04:51:51.216Z,6.30
2023-10-13T04:54:34.574Z,5.90
2023-10-13T04:57:26.862Z,5.50
2023-10-13T05:00:16.377Z,5.50
2023-10-13T05:03:17.972Z,5.70
2023-10-13T05:06:03.297Z,5.40
2023-10-13T05:08:52.678Z,5.30
2023-10-13T05:11:40.907Z,8.50
2023-10-13T05:14:29.972Z,10.10
2023-10-13T05:17:18.863Z,19.00
2023-10-13T05:20:07.844Z,20.20
2023-10-13T05:22:56.517Z,24.00
2023-10-13T05:25:45.231Z,13.90
2023-10-13T05:28:35.763Z,18.00
2023-10-13T05:31:25.952Z,30.20
2023-10-13T05:34:14.771Z,35.30
2023-10-13T05:37:03.442Z,34.20
2023-10-13T05:39:52.075Z,28.20
2023-10-13T05:42:40.982Z,24.80
2023-10-13T05:45:38.055Z,24.90
2023-10-13T05:48:15.342Z,19.50
2023-10-13T05:51:19.380Z,19.60
2023-10-13T05:54:07.995Z,18.80
2023-10-13T05:56:56.433Z,16.70
2023-10-13T05:59:45.215Z,18.10
2023-10-13T06:02:36.862Z,19.10
2023-10-13T06:05:27.950Z,17.70
2023-10-13T06:08:17.627Z,17.00
2023-10-13T06:11:15.455Z,17.10
2023-10-13T06:14:00.707Z,18.00
2023-10-13T06:16:50.969Z,18.30
2023-10-13T06:19:39.688Z,17.20
2023-10-13T06:22:28.638Z,14.10
2023-10-13T06:25:17.486Z,15.40
2023-10-13T06:28:17.837Z,13.90
2023-10-13T06:30:58.788Z,12.50
2023-10-13T06:33:33.188Z,10.90
2023-10-13T06:36:10.555Z,11.60
2023-10-13T06:38:42.679Z,12.00
2023-10-13T06:41:21.499Z,11.40
2023-10-13T06:44:00.912Z,11.30
2023-10-13T06:46:35.294Z,11.60
2023-10-13T06:49:06.649Z,10.70
2023-10-13T06:51:39.341Z,9.80
2023-10-13T06:54:20.153Z,9.70
2023-10-13T06:56:54.716Z,9.70
2023-10-13T06:59:28.260Z,9.90
2023-10-13T07:02:20.414Z,10.10
2023-10-13T07:05:08.707Z,10.10
2023-10-13T07:07:41.531Z,9.10
2023-10-13T07:10:14.600Z,9.80
2023-10-13T07:12:45.975Z,9.40
2023-10-13T07:15:21.607Z,9.50
2023-10-13T07:17:56.462Z,9.50
2023-10-13T07:20:36.121Z,12.30
2023-10-13T07:23:07.658Z,12.30
2023-10-13T07:25:41.818Z,13.20
2023-10-13T07:28:13.110Z,13.70
2023-10-13T07:30:50.827Z,13.00
2023-10-13T07:33:22.172Z,11.50
2023-10-13T07:36:12.144Z,9.50
2023-10-13T07:38:43.918Z,9.00
2023-10-13T07:41:17.023Z,8.50
2023-10-13T07:43:49.329Z,10.10
2023-10-13T07:46:27.110Z,8.50
2023-10-13T07:49:10.673Z,7.80
2023-10-13T07:51:45.588Z,7.30
2023-10-13T07:54:23.188Z,7.00
2023-10-13T07:56:56.064Z,9.00
2023-10-13T07:59:29.484Z,6.50
2023-10-13T08:02:15.116Z,7.20
2023-10-13T08:04:48.278Z,6.60
2023-10-13T08:07:29.230Z,6.20
2023-10-13T08:10:03.034Z,5.90
2023-10-13T08:12:34.311Z,7.10
2023-10-13T08:15:22.809Z,6.80
2023-10-13T08:17:54.331Z,7.10
2023-10-13T08:20:27.704Z,6.90
2023-10-13T08:23:14.423Z,6.20
2023-10-13T08:26:03.007Z,6.40
2023-10-13T08:28:58.243Z,6.10
2023-10-13T08:31:31.505Z,6.70
2023-10-13T08:34:08.214Z,6.90
2023-10-13T08:36:39.727Z,5.90
2023-10-13T08:39:38.424Z,6.50
2023-10-13T08:42:14.162Z,7.10
2023-10-13T08:44:53.160Z,5.80
2023-10-13T08:47:30.238Z,5.80
2023-10-13T08:50:11.993Z,6.30
2023-10-13T08:52:50.304Z,5.80
2023-10-13T08:55:47.964Z,5.80
2023-10-13T08:58:26.232Z,6.30
2023-10-13T09:01:13.129Z,5.80
2023-10-13T09:03:50.868Z,5.80
2023-10-13T09:06:23.909Z,5.40
2023-10-13T09:09:08.150Z,5.70
2023-10-13T09:11:51.728Z,6.10
2023-10-13T09:14:36.991Z,5.70
2023-10-13T09:17:35.102Z,6.40
2023-10-13T09:20:32.617Z,5.60
2023-10-13T09:23:13.695Z,5.30
2023-10-13T09:25:59.086Z,5.60
2023-10-13T09:28:32.958Z,5.50
2023-10-13T09:31:08.686Z,4.80
2023-10-13T09:33:48.750Z,5.30
2023-10-13T09:36:22.277Z,4.90
2023-10-13T09:39:13.407Z,5.00
2023-10-13T09:41:46.202Z,4.90
2023-10-13T09:44:19.283Z,5.20
2023-10-13T09:46:51.408Z,4.70
2023-10-13T09:49:46.291Z,5.10
2023-10-13T09:52:22.035Z,4.70
2023-10-13T09:55:14.714Z,4.50
2023-10-13T09:57:58.866Z,4.80
2023-10-13T10:00:48.174Z,4.20
2023-10-13T10:03:40.288Z,4.00
2023-10-13T10:06:18.550Z,3.60
2023-10-13T10:08:58.069Z,4.10
2023-10-13T10:12:03.508Z,4.40
2023-10-13T10:14:50.409Z,4.10
2023-10-13T10:17:22.834Z,4.20
2023-10-13T10:19:56.636Z,4.70
2023-10-13T10:22:34.991Z,3.90
2023-10-13T10:25:23.295Z,3.90
2023-10-13T10:28:00.483Z,4.00
2023-10-13T10:30:34.561Z,4.80
2023-10-13T10:33:13.628Z,4.40
2023-10-13T10:35:46.386Z,4.50
2023-10-13T10:38:26.116Z,3.80
2023-10-13T10:40:59.549Z,4.00
2023-10-13T10:43:43.496Z,3.90
2023-10-13T10:46:18.451Z,4.00
2023-10-13T10:48:49.992Z,3.90
2023-10-13T10:51:25.460Z,4.10
2023-10-13T10:53:59.344Z,3.40
2023-10-13T10:56:38.330Z,4.80
2023-10-13T10:59:19.576Z,4.00
2023-10-13T11:01:52.425Z,4.50
2023-10-13T11:04:34.922Z,3.60
2023-10-13T11:07:07.902Z,3.90
2023-10-13T11:09:39.303Z,4.10
2023-10-13T11:12:25.205Z,3.60
2023-10-13T11:15:15.297Z,4.00
2023-10-13T11:17:56.079Z,4.30
2023-10-13T11:20:34.110Z,3.50
2023-10-13T11:23:12.884Z,3.80
2023-10-13T11:25:46.072Z,4.10
2023-10-13T11:28:21.993Z,3.40
2023-10-13T11:30:53.444Z,4.00
2023-10-13T11:33:25.592Z,4.10
2023-10-13T11:36:03.734Z,4.10
2023-10-13T11:38:46.657Z,3.50
2023-10-13T11:41:21.058Z,3.50
2023-10-13T11:44:10.955Z,3.70
2023-10-13T11:47:02.156Z,3.80
2023-10-13T11:49:39.398Z,3.30
2023-10-13T11:52:19.881Z,3.40
2023-10-13T11:54:51.156Z,4.00
2023-10-13T11:57:22.741Z,3.60
2023-10-13T12:00:20.259Z,4.10
2023-10-13T12:03:09.455Z,3.50
2023-10-13T12:06:07.416Z,3.60
2023-10-13T12:08:50.393Z,3.40
2023-10-13T12:14:13.052Z,3.60
2023-10-13T12:16:44.300Z,3.80
2023-10-13T12:19:17.689Z,3.30
2023-10-13T12:21:49.696Z,4.00
2023-10-13T12:24:40.981Z,3.40
2023-10-13T12:27:24.507Z,3.40
2023-10-13T12:29:57.865Z,3.50
2023-10-13T12:32:32.161Z,3.60
2023-10-13T12:35:17.770Z,3.60
2023-10-13T12:37:52.096Z,3.40
2023-10-13T12:40:41.592Z,3.30
2023-10-13T12:43:31.925Z,3.70
2023-10-13T12:46:20.796Z,3.40
2023-10-13T12:49:05.209Z,3.60
2023-10-13T12:51:51.963Z,3.70
2023-10-13T12:54:24.851Z,3.90
2023-10-13T12:56:58.366Z,4.20
2023-10-13T12:59:30.276Z,3.30
2023-10-13T13:02:01.643Z,3.60
2023-10-13T13:04:37.962Z,4.70
2023-10-13T13:07:14.516Z,4.00
2023-10-13T13:12:15.572Z,3.90
2023-10-13T13:14:48.308Z,3.60
2023-10-13T13:17:19.541Z,5.30
2023-10-13T13:19:50.792Z,4.70
2023-10-13T13:22:22.176Z,4.60
2023-10-13T13:24:54.148Z,4.90
2023-10-13T13:27:26.165Z,4.00
2023-10-13T13:29:58.024Z,3.60
2023-10-13T13:32:30.117Z,3.70
2023-10-13T13:35:06.638Z,4.10
2023-10-13T13:40:23.456Z,3.80
2023-10-13T13:42:58.249Z,3.50
2023-10-13T13:45:29.490Z,3.80
2023-10-13T13:48:00.673Z,3.90
2023-10-13T13:50:33.514Z,5.10
2023-10-13T13:53:10.269Z,8.80
2023-10-13T13:55:41.669Z,6.90
2023-10-13T13:58:14.356Z,5.80
2023-10-13T14:00:49.881Z,6.10
2023-10-13T14:03:33.338Z,7.80
2023-10-13T14:06:05.080Z,14.10
2023-10-13T14:08:36.239Z,26.00
2023-10-13T14:11:23.277Z,28.50
2023-10-13T14:13:57.180Z,5.00
2023-10-13T14:16:30.640Z,6.90
2023-10-13T14:19:03.317Z,20.70
2023-10-13T14:21:36.352Z,13.00
2023-10-13T14:24:17.815Z,7.00
2023-10-13T14:26:49.143Z,4.50
2023-10-13T14:29:20.909Z,3.50
2023-10-13T14:31:52.142Z,5.00
2023-10-13T14:34:23.959Z,4.00
2023-10-13T14:36:55.820Z,3.50
2023-10-13T14:39:31.295Z,3.30
2023-10-13T14:42:02.410Z,3.40
2023-10-13T14:44:33.673Z,3.10
2023-10-13T14:47:06.763Z,3.50
2023-10-13T14:49:38.366Z,4.40
2023-10-13T14:52:12.743Z,3.60
2023-10-13T14:54:44.369Z,3.40
2023-10-13T14:57:15.402Z,3.80
2023-10-13T14:59:46.580Z,3.40
2023-10-13T15:02:17.808Z,3.60
2023-10-13T15:04:50.654Z,3.50
2023-10-13T15:07:23.712Z,3.60
2023-10-13T15:09:58.153Z,3.40
2023-10-13T15:12:29.876Z,3.70
2023-10-13T15:15:01.221Z,3.70
2023-10-13T15:17:33.367Z,5.00
2023-10-13T15:20:09.499Z,5.50
2023-10-13T15:22:40.665Z,5.50
2023-10-13T15:25:22.357Z,6.50
2023-10-13T15:27:56.881Z,5.90
2023-10-13T15:30:32.383Z,5.70
2023-10-13T15:33:06.677Z,4.50
2023-10-13T15:35:40.137Z,3.90
2023-10-13T15:38:11.257Z,5.10
2023-10-13T15:40:45.843Z,5.80
2023-10-13T15:43:17.117Z,5.20
2023-10-13T15:45:48.371Z,4.60
2023-10-13T15:48:25.226Z,4.50
2023-10-13T15:50:57.205Z,4.60
2023-10-13T15:53:28.759Z,4.40
2023-10-13T15:55:59.892Z,3.80
2023-10-13T15:58:30.948Z,3.50
2023-10-13T16:01:02.178Z,4.50
2023-10-13T16:03:33.880Z,5.40
2023-10-13T16:06:10.935Z,4.20
2023-10-13T16:08:43.782Z,4.00
2023-10-13T16:11:18.942Z,4.10
2023-10-13T16:13:52.006Z,4.10
2023-10-13T16:16:25.798Z,4.90
2023-10-13T16:18:57.086Z,5.40
2023-10-13T16:21:28.578Z,5.20
2023-10-13T16:23:59.973Z,4.60
2023-10-13T16:26:31.972Z,5.00
2023-10-13T16:29:03.026Z,5.00
2023-10-13T16:31:34.114Z,5.10
2023-10-13T16:34:06.317Z,5.50
2023-10-13T16:36:37.498Z,6.40
2023-10-13T16:39:10.767Z,6.00
2023-10-13T16:41:42.612Z,6.60
2023-10-13T16:44:13.909Z,7.30
2023-10-13T16:46:45.184Z,7.50
2023-10-13T16:49:16.414Z,7.10
2023-10-13T16:51:47.634Z,10.80
2023-10-13T16:54:22.634Z,9.30
2023-10-13T16:56:56.941Z,8.10
2023-10-13T16:59:28.193Z,10.40
2023-10-13T17:01:59.226Z,10.90
2023-10-13T17:04:31.537Z,12.70
2023-10-13T17:07:02.765Z,17.20
2023-10-13T17:09:34.928Z,12.80
2023-10-13T17:12:06.390Z,9.10
2023-10-13T17:14:41.608Z,12.50
2023-10-13T17:17:12.765Z,12.80
2023-10-13T17:19:50.813Z,11.30
2023-10-13T17:22:22.098Z,15.30
2023-10-13T17:24:53.630Z,14.50
2023-10-13T17:27:24.788Z,14.40
2023-10-13T17:29:56.507Z,17.00
2023-10-13T17:32:27.624Z,19.60
2023-10-13T17:34:59.489Z,18.40
2023-10-13T17:37:34.844Z,16.40
2023-10-13T17:40:08.998Z,15.20
2023-10-13T17:42:40.212Z,14.50
2023-10-13T17:45:12.794Z,14.30
2023-10-13T17:47:44.737Z,14.10
2023-10-13T17:50:15.791Z,15.30
2023-10-13T17:52:49.368Z,18.40
2023-10-13T17:55:20.434Z,14.40
2023-10-13T17:57:51.922Z,13.30
2023-10-13T18:00:25.050Z,12.50
2023-10-13T18:02:56.082Z,11.50
2023-10-13T18:05:27.306Z,11.30
2023-10-13T18:08:00.338Z,12.70
2023-10-13T18:10:32.196Z,11.70
2023-10-13T18:13:03.249Z,14.60
2023-10-13T18:15:34.332Z,12.80
2023-10-13T18:18:05.826Z,11.70
2023-10-13T18:20:36.990Z,11.80
2023-10-13T18:23:12.720Z,12.30
2023-10-13T18:25:44.883Z,11.40
2023-10-13T18:28:16.005Z,13.50
2023-10-13T18:30:47.371Z,11.20
2023-10-13T18:33:20.662Z,13.50
2023-10-13T18:35:53.353Z,13.70
2023-10-13T18:38:26.985Z,13.40
2023-10-13T18:41:01.989Z,12.40
2023-10-13T18:43:33.040Z,19.20
2023-10-13T18:46:07.742Z,14.30
2023-10-13T18:48:40.589Z,11.30
2023-10-13T18:51:15.819Z,12.10
2023-10-13T18:53:50.620Z,12.30
2023-10-13T18:56:22.942Z,13.40
2023-10-13T18:58:56.268Z,12.40
2023-10-13T19:01:30.565Z,12.00
2023-10-13T19:04:05.458Z,12.90
2023-10-13T19:06:37.380Z,11.70
2023-10-13T19:09:09.561Z,11.50
2023-10-13T19:11:41.964Z,10.50
2023-10-13T19:14:12.969Z,9.90
2023-10-13T19:16:47.884Z,10.70
2023-10-13T19:19:19.298Z,12.10
2023-10-13T19:21:50.537Z,12.30
2023-10-13T19:24:22.715Z,15.00
2023-10-13T19:26:54.424Z,14.10
2023-10-13T19:29:25.597Z,13.10
2023-10-13T19:31:56.995Z,12.80
2023-10-13T19:34:28.313Z,15.20
2023-10-13T19:37:04.650Z,13.50
2023-10-13T19:39:42.136Z,13.20
2023-10-13T19:42:15.086Z,12.50
2023-10-13T19:44:47.414Z,12.60
2023-10-13T19:47:18.416Z,27.40
2023-10-13T19:49:49.464Z,20.90
2023-10-13T19:52:23.342Z,18.70
2023-10-13T19:54:57.194Z,24.40
2023-10-13T19:57:28.675Z,20.70
2023-10-13T19:59:59.949Z,31.20
2023-10-13T20:02:33.855Z,29.00
2023-10-13T20:05:06.187Z,17.10
2023-10-13T20:07:39.243Z,17.70
2023-10-13T20:10:11.459Z,16.70
2023-10-13T20:12:43.115Z,14.00
2023-10-13T20:15:15.122Z,15.30
2023-10-13T20:17:47.178Z,16.10
2023-10-13T20:20:21.310Z,16.10
2023-10-13T20:22:52.703Z,13.70
2023-10-13T20:25:25.090Z,12.80
2023-10-13T20:27:56.269Z,14.50
2023-10-13T20:30:27.652Z,15.20
2023-10-13T20:32:58.857Z,17.40
2023-10-13T20:35:31.241Z,24.10
2023-10-13T20:38:03.576Z,18.30
2023-10-13T20:40:34.711Z,17.00
2023-10-13T20:43:06.204Z,17.00
2023-10-13T20:45:39.878Z,16.10
2023-10-13T20:48:11.571Z,15.10
2023-10-13T20:50:42.593Z,15.10
2023-10-13T20:53:15.327Z,14.40
2023-10-13T20:55:47.578Z,14.80
2023-10-13T20:58:18.869Z,14.70
2023-10-13T21:00:50.087Z,17.20
2023-10-13T21:03:21.523Z,14.70
2023-10-13T21:05:55.407Z,14.70
2023-10-13T21:08:27.265Z,13.30
2023-10-13T21:11:01.590Z,13.00
2023-10-13T21:13:33.707Z,13.00
2023-10-13T21:16:10.887Z,13.30
2023-10-13T21:18:43.876Z,16.10
2023-10-13T21:21:20.778Z,13.80
2023-10-13T21:23:54.839Z,14.60
2023-10-13T21:26:29.928Z,13.20
2023-10-13T21:29:02.113Z,11.30
2023-10-13T21:31:34.152Z,13.80
2023-10-13T21:34:07.486Z,12.60
2023-10-13T21:36:39.064Z,11.30
2023-10-13T21:39:12.005Z,8.40
2023-10-13T21:41:43.499Z,9.00
2023-10-13T21:44:15.392Z,9.10
2023-10-13T21:46:47.393Z,9.70
2023-10-13T21:49:19.855Z,9.50
2023-10-13T21:51:51.344Z,9.90
2023-10-13T21:54:22.524Z,9.60
2023-10-13T21:56:54.192Z,9.80
2023-10-13T21:59:25.369Z,9.70
2023-10-13T22:01:56.594Z,8.40
2023-10-13T22:04:32.694Z,8.90
2023-10-13T22:07:04.628Z,8.90
2023-10-13T22:09:37.420Z,9.00
2023-10-13T22:12:10.799Z,8.70
2023-10-13T22:14:41.907Z,8.70
2023-10-13T22:17:15.940Z,9.30
2023-10-13T22:19:50.503Z,9.40
2023-10-13T22:22:21.735Z,10.20
2023-10-13T22:24:52.889Z,8.50
2023-10-13T22:27:24.790Z,9.50
2023-10-13T22:29:57.739Z,9.80
2023-10-13T22:32:29.067Z,10.20
2023-10-13T22:35:01.108Z,10.40
2023-10-13T22:37:34.956Z,10.90
2023-10-13T22:40:13.273Z,10.80
2023-10-13T22:42:45.286Z,9.10
2023-10-13T22:45:20.106Z,9.60
2023-10-13T22:47:54.444Z,9.40
2023-10-13T22:50:27.010Z,8.80
2023-10-13T22:52:59.703Z,9.00
2023-10-13T22:55:37.574Z,9.00
2023-10-13T22:58:11.090Z,9.00
2023-10-13T23:00:56.150Z,9.50
2023-10-13T23:03:36.624Z,8.30
2023-10-13T23:06:11.818Z,8.00
2023-10-13T23:08:42.986Z,7.50
2023-10-13T23:11:20.986Z,8.60
2023-10-13T23:13:53.283Z,7.90
2023-10-13T23:16:26.129Z,8.00
2023-10-13T23:18:59.641Z,7.80
2023-10-13T23:21:31.026Z,7.90
2023-10-13T23:24:05.523Z,7.00
2023-10-13T23:26:36.583Z,8.00
2023-10-13T23:29:11.277Z,8.20
2023-10-13T23:31:45.167Z,8.30
2023-10-13T23:34:18.042Z,7.30
2023-10-13T23:36:49.725Z,7.40
2023-10-13T23:39:34.416Z,7.40
2023-10-13T23:42:08.754Z,6.70
2023-10-13T23:44:40.224Z,6.80
2023-10-13T23:47:11.793Z,7.80
2023-10-13T23:49:43.685Z,7.50
2023-10-13T23:52:15.180Z,6.60
2023-10-13T23:54:55.415Z,7.00
2023-10-13T23:57:27.713Z,7.40
2023-10-13T23:59:59.016Z,6.60
